createdAt,value
2017-09-11T00:00:48.401Z,13.50
2017-09-11T00:03:14.595Z,13.50
2017-09-11T00:05:41.518Z,13.30
2017-09-11T00:08:08.557Z,13.30
2017-09-11T00:10:34.702Z,13.40
2017-09-11T00:13:01.901Z,13.50
2017-09-11T00:15:28.023Z,13.50
2017-09-11T00:17:54.211Z,13.40
2017-09-11T00:20:20.333Z,13.50
2017-09-11T00:22:46.606Z,13.50
2017-09-11T00:25:13.687Z,13.50
2017-09-11T00:27:39.862Z,13.50
2017-09-11T00:30:06.833Z,13.60
2017-09-11T00:32:32.987Z,13.70
2017-09-11T00:34:59.561Z,13.60
2017-09-11T00:37:27.496Z,13.60
2017-09-11T00:39:56.634Z,13.60
2017-09-11T00:42:23.569Z,13.60
2017-09-11T00:44:49.775Z,13.60
2017-09-11T00:47:15.993Z,13.60
2017-09-11T00:49:43.282Z,13.60
2017-09-11T00:52:09.513Z,13.70
2017-09-11T00:54:36.187Z,13.70
2017-09-11T00:57:03.330Z,13.70
2017-09-11T00:59:29.538Z,13.80
2017-09-11T01:01:58.866Z,13.80
2017-09-11T01:04:27.011Z,13.90
2017-09-11T01:06:53.266Z,13.90
2017-09-11T01:09:19.423Z,13.80
2017-09-11T01:11:45.739Z,13.80
2017-09-11T01:14:12.967Z,13.80
2017-09-11T01:16:39.954Z,13.90
2017-09-11T01:19:07.935Z,13.80
2017-09-11T01:21:34.104Z,13.80
2017-09-11T01:24:00.338Z,13.90
2017-09-11T01:26:26.619Z,13.90
2017-09-11T01:28:52.817Z,13.90
2017-09-11T01:31:21.042Z,14.00
2017-09-11T01:33:48.162Z,14.00
2017-09-11T01:36:14.327Z,14.00
2017-09-11T01:38:40.531Z,13.90
2017-09-11T01:41:06.746Z,13.90
2017-09-11T01:43:32.894Z,13.90
2017-09-11T01:45:59.083Z,13.80
2017-09-11T01:48:25.622Z,13.80
2017-09-11T01:50:51.815Z,13.70
2017-09-11T01:53:18.745Z,13.70
2017-09-11T01:55:45.720Z,13.60
2017-09-11T01:58:12.955Z,13.60
2017-09-11T02:00:39.870Z,13.70
2017-09-11T02:03:06.031Z,13.70
2017-09-11T02:05:32.966Z,13.70
2017-09-11T02:07:59.113Z,13.70
2017-09-11T02:10:26.086Z,13.80
2017-09-11T02:12:52.281Z,14.10
2017-09-11T02:15:20.310Z,13.80
2017-09-11T02:17:47.156Z,13.70
2017-09-11T02:20:13.971Z,13.70
2017-09-11T02:22:40.202Z,13.70
2017-09-11T02:25:06.395Z,13.70
2017-09-11T02:27:35.957Z,13.70
2017-09-11T02:30:03.762Z,13.60
2017-09-11T02:32:29.961Z,13.70
2017-09-11T02:34:56.191Z,13.70
2017-09-11T02:37:22.555Z,13.70
2017-09-11T02:39:49.413Z,13.70
2017-09-11T02:42:16.315Z,13.70
2017-09-11T02:44:43.274Z,13.70
2017-09-11T02:47:09.482Z,13.70
2017-09-11T02:49:35.673Z,13.70
2017-09-11T02:52:01.866Z,13.70
2017-09-11T02:54:30.373Z,13.80
2017-09-11T02:56:57.290Z,13.80
2017-09-11T02:59:24.770Z,13.80
2017-09-11T03:01:51.750Z,13.80
2017-09-11T03:04:17.937Z,13.80
2017-09-11T03:06:44.852Z,13.80
2017-09-11T03:09:11.015Z,13.80
2017-09-11T03:11:38.878Z,13.80
2017-09-11T03:14:05.025Z,13.80
2017-09-11T03:16:31.918Z,13.80
2017-09-11T03:18:58.054Z,13.80
2017-09-11T03:21:24.275Z,13.70
2017-09-11T03:23:50.536Z,13.80
2017-09-11T03:26:18.223Z,13.70
2017-09-11T03:28:45.180Z,13.70
2017-09-11T03:31:11.382Z,13.70
2017-09-11T03:33:38.323Z,13.70
2017-09-11T03:36:06.253Z,13.70
2017-09-11T03:38:32.442Z,13.70
2017-09-11T03:40:59.354Z,13.80
2017-09-11T03:43:26.518Z,13.80
2017-09-11T03:45:52.678Z,13.80
2017-09-11T03:48:18.844Z,13.80
2017-09-11T03:50:45.013Z,13.70
2017-09-11T03:53:11.888Z,13.80
2017-09-11T03:55:39.146Z,13.80
2017-09-11T03:58:05.906Z,13.80
2017-09-11T04:00:32.125Z,13.80
2017-09-11T04:02:58.325Z,13.80
2017-09-11T04:05:25.806Z,13.90
2017-09-11T04:07:52.020Z,13.90
2017-09-11T04:10:18.208Z,13.90
2017-09-11T04:12:45.147Z,13.90
2017-09-11T04:15:12.069Z,14.00
2017-09-11T04:17:38.283Z,14.00
2017-09-11T04:20:04.459Z,14.00
2017-09-11T04:22:31.381Z,14.10
2017-09-11T04:24:58.280Z,14.20
2017-09-11T04:27:24.498Z,14.20
2017-09-11T04:29:51.417Z,14.20
2017-09-11T04:32:18.158Z,14.20
2017-09-11T04:34:44.334Z,14.20
2017-09-11T04:37:10.479Z,14.20
2017-09-11T04:39:37.046Z,14.20
2017-09-11T04:42:03.624Z,14.10
2017-09-11T04:44:29.858Z,14.10
2017-09-11T04:46:56.006Z,14.00
2017-09-11T04:49:22.780Z,14.00
2017-09-11T04:51:48.954Z,13.90
2017-09-11T04:54:15.145Z,13.90
2017-09-11T04:56:42.036Z,13.80
2017-09-11T04:59:08.218Z,13.80
2017-09-11T05:01:35.169Z,13.60
2017-09-11T05:04:02.063Z,13.60
2017-09-11T05:06:28.219Z,13.50
2017-09-11T05:08:55.144Z,13.40
2017-09-11T05:11:21.303Z,13.40
2017-09-11T05:13:48.310Z,13.20
2017-09-11T05:16:14.475Z,13.20
2017-09-11T05:18:41.755Z,13.30
2017-09-11T05:21:07.902Z,13.20
2017-09-11T05:23:34.107Z,13.10
2017-09-11T05:26:01.070Z,13.10
2017-09-11T05:28:27.220Z,13.10
2017-09-11T05:30:53.443Z,13.00
2017-09-11T05:33:19.913Z,13.00
2017-09-11T05:35:46.917Z,13.00
2017-09-11T05:38:13.133Z,13.10
2017-09-11T05:40:39.291Z,13.10
2017-09-11T05:43:05.466Z,13.10
2017-09-11T05:45:32.424Z,13.00
2017-09-11T05:47:59.327Z,13.00
2017-09-11T05:50:25.518Z,13.00
2017-09-11T05:52:51.683Z,13.10
2017-09-11T05:55:17.943Z,13.10
2017-09-11T06:00:12.727Z,13.00
2017-09-11T06:02:38.885Z,13.00
2017-09-11T06:05:05.822Z,13.10
2017-09-11T06:07:32.748Z,13.10
2017-09-11T06:09:58.909Z,12.90
2017-09-11T06:12:25.813Z,13.10
2017-09-11T06:14:52.021Z,13.10
2017-09-11T06:17:18.263Z,13.10
2017-09-11T06:19:44.834Z,13.00
2017-09-11T06:22:11.007Z,13.00
2017-09-11T06:24:37.163Z,13.00
2017-09-11T06:27:03.363Z,13.00
2017-09-11T06:29:31.679Z,13.10
2017-09-11T06:31:57.908Z,13.10
2017-09-11T06:34:24.194Z,13.10
2017-09-11T06:36:50.447Z,13.20
2017-09-11T06:39:16.662Z,13.20
2017-09-11T06:41:42.834Z,13.30
2017-09-11T06:44:09.086Z,13.30
2017-09-11T06:46:36.048Z,13.40
2017-09-11T06:49:02.252Z,13.40
2017-09-11T06:51:29.194Z,13.40
2017-09-11T06:53:56.096Z,13.50
2017-09-11T06:56:22.251Z,13.40
2017-09-11T06:58:48.471Z,13.50
2017-09-11T07:01:14.695Z,13.60
2017-09-11T07:03:40.841Z,13.60
2017-09-11T07:06:07.050Z,13.60
2017-09-11T07:08:33.243Z,13.70
2017-09-11T07:10:59.502Z,13.80
2017-09-11T07:13:33.694Z,13.80
2017-09-11T07:15:59.884Z,13.70
2017-09-11T07:18:26.813Z,13.70
2017-09-11T07:20:52.994Z,14.20
2017-09-11T07:23:19.210Z,13.70
2017-09-11T07:25:45.383Z,13.70
2017-09-11T07:28:11.557Z,13.60
2017-09-11T07:30:38.482Z,13.70
2017-09-11T07:33:06.312Z,13.80
2017-09-11T07:35:32.520Z,13.80
2017-09-11T07:37:58.717Z,13.80
2017-09-11T07:40:25.659Z,13.80
2017-09-11T07:42:52.596Z,13.80
2017-09-11T07:45:19.532Z,13.80
2017-09-11T07:47:45.756Z,13.80
2017-09-11T07:50:11.940Z,13.80
2017-09-11T07:52:38.142Z,13.80
2017-09-11T07:55:05.083Z,13.80
2017-09-11T07:57:31.968Z,13.80
2017-09-11T07:59:58.189Z,13.80
2017-09-11T08:02:24.363Z,13.80
2017-09-11T08:04:50.598Z,13.90
2017-09-11T08:07:17.482Z,14.10
2017-09-11T08:09:43.638Z,14.10
2017-09-11T08:12:09.833Z,14.20
2017-09-11T08:14:36.041Z,14.20
2017-09-11T08:17:02.947Z,14.20
2017-09-11T08:19:29.491Z,14.10
2017-09-11T08:21:56.155Z,14.20
2017-09-11T08:24:22.863Z,14.20
2017-09-11T08:26:49.046Z,14.10
2017-09-11T08:29:15.206Z,14.10
2017-09-11T08:31:41.404Z,14.10
2017-09-11T08:34:07.582Z,14.10
2017-09-11T08:36:33.783Z,14.10
2017-09-11T08:39:00.816Z,14.10
2017-09-11T08:41:27.021Z,14.20
2017-09-11T08:43:53.204Z,14.20
2017-09-11T08:46:19.373Z,14.20
2017-09-11T08:48:46.311Z,14.30
2017-09-11T08:51:12.517Z,14.30
2017-09-11T08:53:38.657Z,14.50
2017-09-11T08:56:04.853Z,14.60
2017-09-11T08:58:31.086Z,14.70
2017-09-11T09:00:57.272Z,14.70
2017-09-11T09:03:23.446Z,14.80
2017-09-11T09:05:49.608Z,14.80
2017-09-11T09:08:15.817Z,14.90
2017-09-11T09:10:41.958Z,14.90
2017-09-11T09:13:09.862Z,15.00
2017-09-11T09:15:36.043Z,15.00
2017-09-11T09:18:02.293Z,15.10
2017-09-11T09:20:44.974Z,15.10
2017-09-11T09:23:14.006Z,15.20
2017-09-11T09:25:40.926Z,15.50
2017-09-11T09:28:07.105Z,15.60
2017-09-11T09:30:33.304Z,15.60
2017-09-11T09:32:59.502Z,15.90
2017-09-11T09:35:25.705Z,16.10
2017-09-11T09:37:52.194Z,16.10
2017-09-11T09:40:19.112Z,16.20
2017-09-11T09:42:45.387Z,16.20
2017-09-11T09:45:12.333Z,16.40
2017-09-11T09:47:39.246Z,16.40
2017-09-11T09:50:06.147Z,16.60
2017-09-11T09:52:32.325Z,16.60
2017-09-11T09:55:00.054Z,17.10
2017-09-11T09:57:26.233Z,17.10
2017-09-11T09:59:53.138Z,17.70
2017-09-11T10:02:19.342Z,18.50
2017-09-11T10:04:45.539Z,18.60
2017-09-11T10:07:12.487Z,18.40
2017-09-11T10:09:39.390Z,18.40
2017-09-11T10:12:06.499Z,18.40
2017-09-11T10:14:33.397Z,18.40
2017-09-11T10:16:59.603Z,18.80
2017-09-11T10:19:25.767Z,18.80
2017-09-11T10:21:51.954Z,18.70
2017-09-11T10:24:18.117Z,18.70
2017-09-11T10:26:44.273Z,19.10
2017-09-11T10:29:10.466Z,19.60
2017-09-11T10:31:36.679Z,20.10
2017-09-11T10:34:02.835Z,21.10
2017-09-11T10:36:29.974Z,21.10
2017-09-11T10:38:57.691Z,21.80
2017-09-11T10:41:24.086Z,22.40
2017-09-11T10:43:50.294Z,23.00
2017-09-11T10:46:16.501Z,23.10
2017-09-11T10:48:42.695Z,23.60
2017-09-11T10:51:08.859Z,23.90
2017-09-11T10:53:36.694Z,24.20
2017-09-11T10:56:02.867Z,23.80
2017-09-11T10:58:29.062Z,23.80
2017-09-11T11:00:55.212Z,22.80
2017-09-11T11:03:23.160Z,22.70
2017-09-11T11:05:49.856Z,22.70
2017-09-11T11:08:15.994Z,22.70
2017-09-11T11:10:45.223Z,23.70
2017-09-11T11:13:11.514Z,24.70
2017-09-11T11:15:38.454Z,25.40
2017-09-11T11:18:05.074Z,25.30
2017-09-11T11:20:31.280Z,25.00
2017-09-11T11:22:57.422Z,24.90
2017-09-11T11:25:24.316Z,24.70
2017-09-11T11:27:52.538Z,24.90
2017-09-11T11:30:18.693Z,25.00
2017-09-11T11:32:44.903Z,25.60
2017-09-11T11:35:11.075Z,25.50
2017-09-11T11:37:38.014Z,24.20
2017-09-11T11:40:04.911Z,23.10
2017-09-11T11:42:31.056Z,22.40
2017-09-11T11:54:42.241Z,20.10
2017-09-11T11:57:09.188Z,19.90
2017-09-11T11:59:35.367Z,20.50
2017-09-11T12:02:03.303Z,20.60
2017-09-11T12:04:30.482Z,22.10
2017-09-11T12:06:59.344Z,22.70
2017-09-11T12:09:25.488Z,23.70
2017-09-11T12:11:51.677Z,24.80
2017-09-11T12:14:18.596Z,25.70
2017-09-11T12:16:44.793Z,25.70
2017-09-11T12:19:12.077Z,26.10
2017-09-11T12:21:38.275Z,26.30
2017-09-11T12:24:04.454Z,26.70
2017-09-11T12:26:31.354Z,26.50
2017-09-11T12:28:57.586Z,26.50
2017-09-11T12:31:23.783Z,26.60
2017-09-11T12:33:50.003Z,26.90
2017-09-11T12:36:16.167Z,26.90
2017-09-11T12:38:42.350Z,26.20
2017-09-11T12:41:09.518Z,26.00
2017-09-11T12:43:35.726Z,25.90
2017-09-11T12:46:02.647Z,24.20
2017-09-11T12:48:28.801Z,23.30
2017-09-11T12:50:56.312Z,22.50
2017-09-11T12:53:22.511Z,21.90
2017-09-11T12:55:49.410Z,21.30
2017-09-11T12:58:15.595Z,21.10
2017-09-11T13:00:43.170Z,20.80
2017-09-11T13:03:10.095Z,20.60
2017-09-11T13:05:37.515Z,20.20
2017-09-11T13:08:04.504Z,20.10
2017-09-11T13:10:31.806Z,20.40
2017-09-11T13:12:57.969Z,20.90
2017-09-11T13:15:24.155Z,21.50
2017-09-11T13:17:51.703Z,21.60
2017-09-11T13:20:19.080Z,24.10
2017-09-11T13:22:47.965Z,24.30
2017-09-11T13:25:15.333Z,25.00
2017-09-11T13:27:42.284Z,25.10
2017-09-11T13:30:09.290Z,25.00
2017-09-11T13:32:35.488Z,25.00
2017-09-11T13:35:01.980Z,24.20
2017-09-11T13:37:28.118Z,24.70
2017-09-11T13:39:55.162Z,24.30
2017-09-11T13:42:23.453Z,24.00
2017-09-11T13:44:50.657Z,24.20
2017-09-11T13:47:17.214Z,24.40
2017-09-11T13:49:43.337Z,24.30
2017-09-11T13:52:11.592Z,24.40
2017-09-11T13:54:38.525Z,24.20
2017-09-11T13:57:05.695Z,24.10
2017-09-11T13:59:32.885Z,24.10
2017-09-11T14:01:59.897Z,24.10
2017-09-11T14:04:27.369Z,24.10
2017-09-11T14:06:54.602Z,24.10
2017-09-11T14:09:20.818Z,24.20
2017-09-11T14:11:46.978Z,24.20
2017-09-11T14:14:13.225Z,24.50
2017-09-11T14:16:40.197Z,24.40
2017-09-11T14:19:06.406Z,23.80
2017-09-11T14:21:33.363Z,23.80
2017-09-11T14:24:01.628Z,23.70
2017-09-11T14:26:28.563Z,23.60
2017-09-11T14:28:55.449Z,23.00
2017-09-11T14:31:21.633Z,22.70
2017-09-11T14:33:49.583Z,22.30
2017-09-11T14:36:16.547Z,22.10
2017-09-11T14:38:42.687Z,22.10
2017-09-11T14:41:09.244Z,21.80
2017-09-11T14:43:35.805Z,21.40
2017-09-11T14:46:02.077Z,21.30
2017-09-11T14:48:29.134Z,21.20
2017-09-11T14:50:55.325Z,21.40
2017-09-11T14:53:22.681Z,21.20
2017-09-11T14:55:50.339Z,20.70
2017-09-11T14:58:17.732Z,20.90
2017-09-11T15:00:43.936Z,20.80
2017-09-11T15:03:10.436Z,20.40
2017-09-11T15:05:36.641Z,20.40
2017-09-11T15:08:03.163Z,20.30
2017-09-11T15:10:32.811Z,20.30
2017-09-11T15:12:59.456Z,20.50
2017-09-11T15:15:26.679Z,20.20
2017-09-11T15:17:53.873Z,20.20
2017-09-11T15:20:20.317Z,20.20
2017-09-11T15:25:15.179Z,20.20
2017-09-11T15:27:41.766Z,20.20
2017-09-11T15:30:08.480Z,19.90
2017-09-11T15:32:35.954Z,19.70
2017-09-11T15:35:04.330Z,19.40
2017-09-11T15:37:30.522Z,19.40
2017-09-11T15:39:58.304Z,19.40
2017-09-11T15:42:24.490Z,19.30
2017-09-11T15:44:50.729Z,19.20
2017-09-11T15:47:17.633Z,19.10
2017-09-11T15:49:43.903Z,18.90
2017-09-11T15:52:11.198Z,18.70
2017-09-11T15:54:37.395Z,18.50
2017-09-11T15:57:04.767Z,18.20
2017-09-11T15:59:31.079Z,18.00
2017-09-11T16:01:58.029Z,18.00
2017-09-11T16:04:24.943Z,17.90
2017-09-11T16:06:51.131Z,17.90
2017-09-11T16:09:17.356Z,17.80
2017-09-11T16:11:43.584Z,17.70
2017-09-11T16:14:09.767Z,17.40
2017-09-11T16:16:36.734Z,17.30
2017-09-11T16:19:03.719Z,17.00
2017-09-11T16:21:29.914Z,16.70
2017-09-11T16:23:56.897Z,16.50
2017-09-11T16:26:23.151Z,16.50
2017-09-11T16:28:49.436Z,16.70
2017-09-11T16:31:15.653Z,16.90
2017-09-11T16:33:42.607Z,17.00
2017-09-11T16:36:46.364Z,17.10
2017-09-11T16:39:12.592Z,17.10
2017-09-11T16:41:38.805Z,17.10
2017-09-11T16:44:05.003Z,17.10
2017-09-11T16:46:31.928Z,17.00
2017-09-11T16:48:58.869Z,16.90
2017-09-11T16:51:26.126Z,16.90
2017-09-11T16:53:52.329Z,16.70
2017-09-11T16:56:18.491Z,16.60
2017-09-11T16:58:45.466Z,16.60
2017-09-11T17:01:11.652Z,16.30
2017-09-11T17:03:37.889Z,16.40
2017-09-11T17:06:04.830Z,16.20
2017-09-11T17:08:32.017Z,16.20
2017-09-11T17:10:58.239Z,16.20
2017-09-11T17:13:25.280Z,16.10
2017-09-11T17:15:52.235Z,16.20
2017-09-11T17:18:18.838Z,16.40
2017-09-11T17:20:45.071Z,16.50
2017-09-11T17:23:12.109Z,16.20
2017-09-11T17:25:38.327Z,16.00
2017-09-11T17:28:04.535Z,15.90
2017-09-11T17:30:30.748Z,15.90
2017-09-11T17:32:56.964Z,15.90
2017-09-11T17:35:23.637Z,16.10
2017-09-11T17:37:49.875Z,15.90
2017-09-11T17:40:16.103Z,16.20
2017-09-11T17:42:42.294Z,15.90
2017-09-11T17:45:10.070Z,15.90
2017-09-11T17:47:37.035Z,16.10
2017-09-11T17:50:04.259Z,16.20
2017-09-11T17:52:30.463Z,16.00
2017-09-11T17:54:57.746Z,16.00
2017-09-11T17:57:24.798Z,16.00
2017-09-11T17:59:51.713Z,15.80
2017-09-11T18:02:19.325Z,15.80
2017-09-11T18:05:00.814Z,15.70
2017-09-11T18:07:27.048Z,15.80
2017-09-11T18:09:54.380Z,15.80
2017-09-11T18:12:20.657Z,15.60
2017-09-11T18:17:14.797Z,15.50
2017-09-11T18:19:41.023Z,15.60
2017-09-11T18:22:11.054Z,15.50
2017-09-11T18:24:37.286Z,15.50
2017-09-11T18:27:04.423Z,15.50
2017-09-11T18:29:32.136Z,15.50
2017-09-11T18:31:58.694Z,15.40
2017-09-11T18:34:25.508Z,15.00
2017-09-11T18:36:53.236Z,15.20
2017-09-11T18:39:19.792Z,15.10
2017-09-11T18:44:14.317Z,15.10
2017-09-11T18:46:40.911Z,15.20
2017-09-11T18:49:07.555Z,15.00
2017-09-11T18:51:33.785Z,15.50
2017-09-11T18:54:03.144Z,14.60
2017-09-11T18:56:29.773Z,15.20
2017-09-11T18:58:56.278Z,15.00
2017-09-11T19:01:22.714Z,14.90
2017-09-11T19:03:49.232Z,15.10
2017-09-11T19:06:15.775Z,15.10
2017-09-11T19:08:43.954Z,15.10
2017-09-11T19:11:10.277Z,15.00
2017-09-11T19:13:36.895Z,15.30
2017-09-11T19:16:07.558Z,15.00
2017-09-11T19:18:34.668Z,15.10
2017-09-11T19:21:01.623Z,15.10
2017-09-11T19:23:28.301Z,15.20
2017-09-11T19:25:54.615Z,15.60
2017-09-11T19:28:21.624Z,15.20
2017-09-11T19:30:48.451Z,14.90
2017-09-11T19:33:14.823Z,15.10
2017-09-11T19:35:41.673Z,14.90
2017-09-11T19:38:09.124Z,15.00
2017-09-11T19:40:36.549Z,15.00
2017-09-11T19:43:06.498Z,14.40
2017-09-11T19:45:32.728Z,14.90
2017-09-11T19:47:59.611Z,14.80
2017-09-11T19:50:41.559Z,14.80
2017-09-11T19:53:11.404Z,14.90
2017-09-11T19:55:37.615Z,15.00
2017-09-11T20:00:31.843Z,14.70
2017-09-11T20:02:58.065Z,14.50
2017-09-11T20:05:24.330Z,14.10
2017-09-11T20:07:53.884Z,14.70
2017-09-11T20:10:20.913Z,14.70
2017-09-11T20:12:49.005Z,15.10
2017-09-11T20:15:15.652Z,14.60
2017-09-11T20:20:12.073Z,14.70
2017-09-11T20:22:38.391Z,14.50
2017-09-11T20:25:05.359Z,14.70
2017-09-11T20:27:31.653Z,14.60
2017-09-11T20:29:58.318Z,14.60
2017-09-11T20:32:25.535Z,14.50
2017-09-11T20:34:55.214Z,14.50
2017-09-11T20:37:24.382Z,14.50
2017-09-11T20:39:50.814Z,14.60
2017-09-11T20:42:17.849Z,14.60
2017-09-11T20:44:45.083Z,14.50
2017-09-11T20:47:13.203Z,14.60
2017-09-11T20:49:40.181Z,14.70
2017-09-11T20:52:08.554Z,14.80
2017-09-11T20:54:34.865Z,14.80
2017-09-11T20:57:02.030Z,14.70
2017-09-11T20:59:28.216Z,14.60
2017-09-11T21:01:55.162Z,14.70
2017-09-11T21:04:22.147Z,14.70
2017-09-11T21:06:49.097Z,14.70
2017-09-11T21:09:16.207Z,14.70
2017-09-11T21:11:43.146Z,14.70
2017-09-11T21:14:10.063Z,14.80
2017-09-11T21:16:36.466Z,14.80
2017-09-11T21:19:05.006Z,14.70
2017-09-11T21:21:32.024Z,14.80
2017-09-11T21:23:59.553Z,14.80
2017-09-11T21:26:25.877Z,14.80
2017-09-11T21:28:52.584Z,14.80
2017-09-11T21:31:19.499Z,14.80
2017-09-11T21:33:46.874Z,14.80
2017-09-11T21:36:13.137Z,14.80
2017-09-11T21:38:40.927Z,14.90
2017-09-11T21:41:08.123Z,14.80
2017-09-11T21:43:36.072Z,14.80
2017-09-11T21:46:02.239Z,14.70
2017-09-11T21:48:28.886Z,14.70
2017-09-11T21:50:56.419Z,14.70
2017-09-11T21:53:23.244Z,14.70
2017-09-11T21:55:49.591Z,14.70
2017-09-11T21:58:17.330Z,14.80
2017-09-11T22:00:43.511Z,14.90
2017-09-11T22:03:10.427Z,14.80
2017-09-11T22:05:37.734Z,14.80
2017-09-11T22:08:03.927Z,14.80
2017-09-11T22:10:31.046Z,14.80
2017-09-11T22:12:58.859Z,14.80
2017-09-11T22:15:26.802Z,14.80
2017-09-11T22:17:53.890Z,14.70
2017-09-11T22:20:20.143Z,14.90
2017-09-11T22:22:46.321Z,14.90
2017-09-11T22:25:13.240Z,14.80
2017-09-11T22:27:40.218Z,14.80
2017-09-11T22:30:06.432Z,14.70
2017-09-11T22:32:34.219Z,14.70
2017-09-11T22:35:01.155Z,14.70
2017-09-11T22:37:28.155Z,14.70
2017-09-11T22:39:54.382Z,14.70
2017-09-11T22:42:20.577Z,14.70
2017-09-11T22:44:47.180Z,14.60
2017-09-11T22:47:13.420Z,14.50
2017-09-11T22:49:40.358Z,14.50
2017-09-11T22:52:06.577Z,14.50
2017-09-11T22:54:35.006Z,14.40
2017-09-11T22:57:01.208Z,14.40
2017-09-11T22:59:28.457Z,14.50
2017-09-11T23:01:55.381Z,14.50
2017-09-11T23:04:23.078Z,14.50
2017-09-11T23:06:50.051Z,14.50
2017-09-11T23:09:16.226Z,14.50
2017-09-11T23:11:42.474Z,14.40
2017-09-11T23:14:09.027Z,14.40
2017-09-11T23:16:37.465Z,14.40
2017-09-11T23:19:04.376Z,14.30
2017-09-11T23:21:30.612Z,14.30
2017-09-11T23:23:56.800Z,14.30
2017-09-11T23:26:24.984Z,14.20
2017-09-11T23:28:51.694Z,14.30
2017-09-11T23:31:17.883Z,14.30
2017-09-11T23:33:44.044Z,14.40
2017-09-11T23:36:10.221Z,14.40
2017-09-11T23:38:36.665Z,14.40
2017-09-11T23:41:02.855Z,14.30
2017-09-11T23:43:29.794Z,14.40
2017-09-11T23:45:56.704Z,14.40
2017-09-11T23:48:23.831Z,14.40
2017-09-11T23:50:49.994Z,14.30
2017-09-11T23:53:16.389Z,14.30
2017-09-11T23:55:42.595Z,14.30
2017-09-11T23:58:08.806Z,14.30
